Arlington, Indiana
Current Conditions -  °F | °C
As of 8:53 AM on Wednesday 28 Jan 2015 (Local Time) from KGEZ Reporting Station
Haze Haze  
Wind Chill: 12°   Ceiling: Unl
Heat Index: 20°   Visibility: 4mi
Dew Point: 15°   Wind: 6mph
Humidity: 81%   Direction: 140°SE
Pressure: 30.35"   Gusts: NA
Location:  39.64°N, 85.57°W
Report Text: KGEZ 281353Z AUTO 14005KT 4SM HZ CLR M07/M09 A3035 RMK AO2 SLP288 T10671094
Loading
Personal Weather Stations






























Interactive Weather Map New forecast layout! Learn more

10-Day Weather Forecast

Advertisements
Track Severe Weather on mobile